createdAt,value
2018-07-31T00:00:09.699Z,96.3
2018-07-31T00:01:16.914Z,94.3
2018-07-31T00:02:23.844Z,92.4
2018-07-31T00:03:31.105Z,94.2
2018-07-31T00:04:38.224Z,94.9
2018-07-31T00:05:45.430Z,91.4
2018-07-31T00:06:52.646Z,93.2
2018-07-31T00:07:59.856Z,93.4
2018-07-31T00:09:07.072Z,94
2018-07-31T00:10:14.279Z,93.7
2018-07-31T00:11:21.498Z,93.7
2018-07-31T00:12:28.709Z,97.2
2018-07-31T00:13:35.922Z,95.2
2018-07-31T00:14:42.864Z,95.8
2018-07-31T00:15:50.078Z,94.1
2018-07-31T00:16:57.296Z,93.1
2018-07-31T00:18:04.239Z,95.9
2018-07-31T00:19:11.454Z,95.5
2018-07-31T00:20:18.677Z,92.3
2018-07-31T00:21:25.881Z,94.3
2018-07-31T00:22:33.095Z,92
2018-07-31T00:23:40.310Z,98
2018-07-31T00:24:47.521Z,98.5
2018-07-31T00:25:54.733Z,99.9
2018-07-31T00:27:01.945Z,97.3
2018-07-31T00:28:08.874Z,95.4
2018-07-31T00:29:16.082Z,96.5
2018-07-31T00:30:23.019Z,93.6
2018-07-31T00:31:29.957Z,92.9
2018-07-31T00:32:37.170Z,96
2018-07-31T00:33:44.383Z,98.8
2018-07-31T00:34:51.592Z,98.4
2018-07-31T00:35:58.807Z,99.9
2018-07-31T00:37:06.025Z,99.9
2018-07-31T00:38:13.467Z,99.9
2018-07-31T00:39:20.665Z,99.9
2018-07-31T00:40:27.877Z,99.9
2018-07-31T00:41:35.091Z,98.7
2018-07-31T00:42:42.316Z,98.6
2018-07-31T00:43:49.525Z,98.2
2018-07-31T00:44:56.736Z,95.5
2018-07-31T00:46:03.957Z,99.9
2018-07-31T00:47:11.172Z,98.9
2018-07-31T00:48:18.386Z,99.9
2018-07-31T00:49:25.594Z,99.9
2018-07-31T00:50:32.258Z,99.6
2018-07-31T00:51:39.474Z,99.9
2018-07-31T00:52:46.691Z,99.9
2018-07-31T00:53:53.908Z,99.9
2018-07-31T00:55:01.131Z,99.6
2018-07-31T00:56:08.337Z,98.7
2018-07-31T00:57:15.560Z,99.9
2018-07-31T00:58:22.770Z,99.9
2018-07-31T00:59:29.981Z,99.9
2018-07-31T01:00:37.194Z,99.9
2018-07-31T01:01:44.405Z,99.9
2018-07-31T01:02:51.618Z,97.9
2018-07-31T01:03:58.831Z,97.9
2018-07-31T01:05:06.045Z,97.2
2018-07-31T01:06:13.258Z,99
2018-07-31T01:07:20.467Z,97.3
2018-07-31T01:08:27.689Z,99.9
2018-07-31T01:09:34.902Z,99.9
2018-07-31T01:10:42.112Z,95.8
2018-07-31T01:11:49.321Z,96.9
2018-07-31T01:12:56.541Z,99.7
2018-07-31T01:14:03.756Z,99.9
2018-07-31T01:15:10.969Z,99.9
2018-07-31T01:16:18.184Z,99.9
2018-07-31T01:17:25.398Z,98.6
2018-07-31T01:18:32.061Z,99.9
2018-07-31T01:19:39.275Z,99.9
2018-07-31T01:20:46.485Z,98.6
2018-07-31T01:21:53.417Z,95.1
2018-07-31T01:23:00.633Z,99.9
2018-07-31T01:24:07.844Z,99.9
2018-07-31T01:25:15.057Z,99.9
2018-07-31T01:26:22.264Z,99.9
2018-07-31T01:27:29.199Z,99.9
2018-07-31T01:28:36.412Z,99.9
2018-07-31T01:29:43.629Z,99.9
2018-07-31T01:30:50.844Z,99.9
2018-07-31T01:31:58.052Z,99.9
2018-07-31T01:33:04.992Z,99.9
2018-07-31T01:34:12.201Z,99.9
2018-07-31T01:35:19.415Z,99.9
2018-07-31T01:36:26.627Z,99.9
2018-07-31T01:37:33.836Z,99.9
2018-07-31T01:38:40.777Z,99.9
2018-07-31T01:39:47.997Z,99.9
2018-07-31T01:40:55.208Z,99.9
2018-07-31T01:42:02.422Z,99.9
2018-07-31T01:43:09.635Z,99.9
2018-07-31T01:44:16.845Z,99.9
2018-07-31T01:45:24.057Z,99.9
2018-07-31T01:46:31.271Z,99.9
2018-07-31T01:47:38.483Z,99.9
2018-07-31T01:48:45.693Z,99.9
2018-07-31T01:49:52.658Z,99.9
2018-07-31T01:50:59.869Z,99.9
2018-07-31T01:52:07.094Z,99.9
2018-07-31T01:53:14.316Z,99.9
2018-07-31T01:54:21.522Z,99.9
2018-07-31T01:55:28.735Z,99.9
2018-07-31T01:56:35.945Z,99.9
2018-07-31T01:57:43.153Z,99.9
2018-07-31T01:58:50.089Z,99.9
2018-07-31T01:59:57.301Z,99.9
2018-07-31T02:01:04.519Z,99.9
2018-07-31T02:02:11.730Z,99.9
2018-07-31T02:03:18.945Z,99.9
2018-07-31T02:04:26.168Z,99.9
2018-07-31T02:05:33.382Z,99.9
2018-07-31T02:06:40.590Z,99.9
2018-07-31T02:07:47.797Z,99.9
2018-07-31T02:10:01.926Z,99.9
2018-07-31T02:11:09.136Z,99.9
2018-07-31T02:12:16.350Z,99.9
2018-07-31T02:13:23.562Z,99.9
2018-07-31T02:14:30.770Z,99.9
2018-07-31T02:15:37.986Z,99.9
2018-07-31T02:16:45.196Z,99.9
2018-07-31T02:17:52.409Z,99.9
2018-07-31T02:18:59.623Z,99.9
2018-07-31T02:20:06.563Z,99.9
2018-07-31T02:21:13.772Z,99.9
2018-07-31T02:22:20.979Z,99.9
2018-07-31T02:23:28.189Z,99.9
2018-07-31T02:24:35.396Z,99.9
2018-07-31T02:25:42.609Z,99.9
2018-07-31T02:26:49.816Z,99.9
2018-07-31T02:27:57.059Z,99.9
2018-07-31T02:29:04.556Z,99.9
2018-07-31T02:30:11.771Z,99.9
2018-07-31T02:31:18.976Z,99.9
2018-07-31T02:32:26.190Z,99.9
2018-07-31T02:33:33.404Z,99.9
2018-07-31T02:34:40.613Z,99.9
2018-07-31T02:35:47.828Z,99.9
2018-07-31T02:36:55.038Z,99.9
2018-07-31T02:38:02.245Z,99.9
2018-07-31T02:39:09.460Z,99.9
2018-07-31T02:40:16.667Z,99.9
2018-07-31T02:41:23.880Z,99.9
2018-07-31T02:42:31.100Z,99.9
2018-07-31T02:43:38.314Z,99.9
2018-07-31T02:44:45.527Z,99.9
2018-07-31T02:45:52.738Z,99.9
2018-07-31T02:46:59.997Z,99.9
2018-07-31T02:48:07.771Z,99.9
2018-07-31T02:49:14.975Z,99.9
2018-07-31T02:50:22.185Z,99.9
2018-07-31T02:51:29.398Z,99.9
2018-07-31T02:52:36.609Z,99.9
2018-07-31T02:53:43.816Z,99.9
2018-07-31T02:54:51.032Z,99.9
2018-07-31T02:55:58.244Z,99.9
2018-07-31T02:57:05.456Z,99.9
2018-07-31T02:58:12.763Z,99.9
2018-07-31T02:59:20.136Z,99.9
2018-07-31T03:00:27.348Z,99.9
2018-07-31T03:01:34.560Z,99.9
2018-07-31T03:02:41.768Z,99.9
2018-07-31T03:03:48.986Z,99.9
2018-07-31T03:04:56.194Z,99.9
2018-07-31T03:06:03.409Z,99.9
2018-07-31T03:07:10.616Z,99.9
2018-07-31T03:08:17.950Z,99.9
2018-07-31T03:09:25.540Z,99.9
2018-07-31T03:10:32.756Z,99.9
2018-07-31T03:11:39.972Z,99.9
2018-07-31T03:12:46.911Z,99.9
2018-07-31T03:13:54.121Z,99.9
2018-07-31T03:15:01.333Z,99.9
2018-07-31T03:16:08.281Z,99.9
2018-07-31T03:17:15.495Z,99.9
2018-07-31T03:18:22.736Z,99.9
2018-07-31T03:19:29.676Z,99.9
2018-07-31T03:20:36.886Z,99.9
2018-07-31T03:21:44.096Z,99.9
2018-07-31T03:22:51.038Z,99.9
2018-07-31T03:23:58.258Z,99.9
2018-07-31T03:25:05.467Z,99.9
2018-07-31T03:26:12.686Z,99.9
2018-07-31T03:27:19.901Z,99.9
2018-07-31T03:28:27.135Z,99.9
2018-07-31T03:29:34.343Z,99.9
2018-07-31T03:30:41.275Z,99.9
2018-07-31T03:31:48.484Z,99.9
2018-07-31T03:32:55.690Z,99.9
2018-07-31T03:34:02.898Z,99.9
2018-07-31T03:35:10.114Z,99.9
2018-07-31T03:36:17.329Z,99.9
2018-07-31T03:37:24.539Z,99.9
2018-07-31T03:38:31.479Z,99.9
2018-07-31T03:39:38.684Z,99.9
2018-07-31T03:40:45.631Z,99.9
2018-07-31T03:41:52.833Z,99.9
2018-07-31T03:43:00.049Z,99.9
2018-07-31T03:44:07.256Z,99.9
2018-07-31T03:45:14.467Z,99.9
2018-07-31T03:46:21.677Z,99.9
2018-07-31T03:47:28.896Z,99.9
2018-07-31T03:48:36.106Z,99.9
2018-07-31T03:49:43.315Z,99.9
2018-07-31T03:50:50.248Z,99.9
2018-07-31T03:51:57.458Z,99.9
2018-07-31T03:53:04.404Z,99.9
2018-07-31T03:54:11.621Z,99.9
2018-07-31T03:55:18.837Z,99.9
2018-07-31T03:56:26.077Z,99.9
2018-07-31T03:57:33.238Z,99.9
2018-07-31T03:58:40.450Z,99.9
2018-07-31T03:59:47.663Z,99.9
2018-07-31T04:00:54.882Z,99.9
2018-07-31T04:02:02.098Z,99.9
2018-07-31T04:03:09.315Z,99.9
2018-07-31T04:04:16.259Z,99.9
2018-07-31T04:05:23.506Z,99.9
2018-07-31T04:06:30.872Z,99.9
2018-07-31T04:07:38.084Z,99.9
2018-07-31T04:08:45.293Z,99.9
2018-07-31T04:09:52.507Z,99.9
2018-07-31T04:10:59.721Z,99.9
2018-07-31T04:12:06.934Z,99.9
2018-07-31T04:13:14.148Z,99.9
2018-07-31T04:14:21.362Z,99.9
2018-07-31T04:15:28.569Z,99.9
2018-07-31T04:16:35.785Z,99.9
2018-07-31T04:17:42.993Z,99.9
2018-07-31T04:18:49.932Z,99.9
2018-07-31T04:19:57.142Z,99.9
2018-07-31T04:21:04.354Z,99.9
2018-07-31T04:22:11.565Z,99.9
2018-07-31T04:23:18.776Z,99.9
2018-07-31T04:24:25.992Z,99.9
2018-07-31T04:25:33.213Z,99.9
2018-07-31T04:26:40.434Z,99.9
2018-07-31T04:27:47.646Z,99.9
2018-07-31T04:28:54.864Z,99.9
2018-07-31T04:30:02.113Z,99.9
2018-07-31T04:31:09.470Z,99.9
2018-07-31T04:32:16.687Z,99.9
2018-07-31T04:33:23.898Z,99.9
2018-07-31T04:35:53.030Z,99.9
2018-07-31T04:37:00.183Z,99.9
2018-07-31T04:38:07.115Z,99.9
2018-07-31T04:39:14.336Z,99.9
2018-07-31T04:40:21.542Z,99.9
2018-07-31T04:41:28.757Z,99.9
2018-07-31T04:43:57.560Z,99.9
2018-07-31T04:45:04.775Z,99.9
2018-07-31T04:46:11.981Z,99.9
2018-07-31T04:47:19.198Z,99.9
2018-07-31T04:48:26.416Z,99.9
2018-07-31T04:49:33.620Z,99.9
2018-07-31T04:50:40.835Z,99.9
2018-07-31T04:51:47.498Z,99.9
2018-07-31T04:52:54.711Z,99.9
2018-07-31T04:54:01.921Z,99.9
2018-07-31T04:55:08.586Z,99.9
2018-07-31T04:56:15.247Z,99.9
2018-07-31T04:57:22.459Z,99.9
2018-07-31T04:58:29.672Z,99.9
2018-07-31T04:59:36.888Z,99.9
2018-07-31T05:00:44.108Z,99.9
2018-07-31T05:01:51.336Z,99.9
2018-07-31T05:02:58.548Z,99.9
2018-07-31T05:04:05.775Z,99.9
2018-07-31T05:05:12.988Z,99.9
2018-07-31T05:06:20.201Z,99.9
2018-07-31T05:07:27.411Z,99.9
2018-07-31T05:08:34.624Z,99.9
2018-07-31T05:09:41.838Z,99.9
2018-07-31T05:12:11.155Z,99.9
2018-07-31T05:13:18.377Z,99.9
2018-07-31T05:14:25.607Z,99.9
2018-07-31T05:15:32.822Z,99.9
2018-07-31T05:16:39.776Z,99.9
2018-07-31T05:17:46.987Z,99.9
2018-07-31T05:18:54.197Z,99.9
2018-07-31T05:20:01.413Z,99.9
2018-07-31T05:21:08.357Z,99.9
2018-07-31T05:22:15.569Z,99.9
2018-07-31T05:23:22.777Z,99.9
2018-07-31T05:24:29.989Z,99.9
2018-07-31T05:25:36.937Z,99.9
2018-07-31T05:26:44.146Z,99.9
2018-07-31T05:27:51.362Z,99.9
2018-07-31T05:28:58.576Z,99.9
2018-07-31T05:30:05.517Z,99.9
2018-07-31T05:31:12.724Z,99.9
2018-07-31T05:32:19.958Z,99.9
2018-07-31T05:33:27.174Z,99.9
2018-07-31T05:34:34.383Z,99.9
2018-07-31T05:35:41.591Z,99.9
2018-07-31T05:36:48.806Z,99.9
2018-07-31T05:37:56.018Z,99.9
2018-07-31T05:39:03.225Z,99.9
2018-07-31T05:40:10.442Z,99.9
2018-07-31T05:41:17.651Z,99.9
2018-07-31T05:42:24.865Z,99.9
2018-07-31T05:43:31.814Z,99.9
2018-07-31T05:44:39.025Z,99.9
2018-07-31T05:45:45.982Z,99.9
2018-07-31T05:46:53.198Z,99.9
2018-07-31T05:48:00.411Z,99.9
2018-07-31T05:49:07.348Z,99.9
2018-07-31T05:50:14.575Z,99.9
2018-07-31T05:51:21.515Z,99.9
2018-07-31T05:52:28.453Z,99.9
2018-07-31T05:53:35.663Z,99.9
2018-07-31T05:54:42.897Z,99.9
2018-07-31T05:55:50.112Z,99.9
2018-07-31T05:56:57.060Z,99.9
2018-07-31T05:58:04.276Z,99.9
2018-07-31T05:59:11.509Z,99.9
2018-07-31T06:00:18.724Z,99.9
2018-07-31T06:01:25.940Z,99.9
2018-07-31T06:02:33.151Z,99.9
2018-07-31T06:03:40.195Z,99.9
2018-07-31T06:04:47.524Z,99.9
2018-07-31T06:05:54.738Z,99.9
2018-07-31T06:07:01.969Z,99.9
2018-07-31T06:08:09.185Z,99.9
2018-07-31T06:09:16.399Z,99.9
2018-07-31T06:10:23.612Z,99.9
2018-07-31T06:11:30.823Z,99.9
2018-07-31T06:12:38.041Z,99.9
2018-07-31T06:13:45.251Z,99.9
2018-07-31T06:14:52.188Z,99.9
2018-07-31T06:15:59.406Z,99.9
2018-07-31T06:17:06.620Z,99.9
2018-07-31T06:18:13.837Z,99.9
2018-07-31T06:19:21.047Z,93.7
2018-07-31T06:20:27.985Z,88.2
2018-07-31T06:21:34.927Z,90.4
2018-07-31T06:22:42.143Z,91.2
2018-07-31T06:23:49.359Z,91.1
2018-07-31T06:24:56.574Z,86.1
2018-07-31T06:26:03.800Z,78.9
2018-07-31T06:27:11.020Z,77.8
2018-07-31T06:28:18.239Z,77.9
2018-07-31T06:29:25.451Z,73.7
2018-07-31T06:30:32.664Z,69
2018-07-31T06:31:39.895Z,66.4
2018-07-31T06:32:47.135Z,70.6
2018-07-31T06:33:54.442Z,64.2
2018-07-31T06:35:01.658Z,62.1
2018-07-31T06:36:08.887Z,67.3
2018-07-31T06:37:16.104Z,64.3
2018-07-31T06:38:23.531Z,63.9
2018-07-31T06:39:30.750Z,58.3
2018-07-31T06:40:37.969Z,54.4
2018-07-31T06:41:45.204Z,54.9
2018-07-31T06:42:52.415Z,49.6
2018-07-31T06:43:59.634Z,42.3
2018-07-31T06:45:06.575Z,45.5
2018-07-31T06:46:13.797Z,55
2018-07-31T06:47:20.736Z,52.9
2018-07-31T06:48:27.672Z,50.6
2018-07-31T06:49:34.885Z,45.5
2018-07-31T06:50:42.105Z,48.5
2018-07-31T06:51:49.327Z,44
2018-07-31T06:52:56.544Z,42
2018-07-31T06:54:03.485Z,27.5
2018-07-31T06:55:10.703Z,35.5
2018-07-31T06:56:17.919Z,28.6
2018-07-31T06:57:25.136Z,23.8
2018-07-31T06:58:32.093Z,24.4
2018-07-31T06:59:39.311Z,23.6
2018-07-31T07:00:46.537Z,26.6
2018-07-31T07:01:53.760Z,19.4
2018-07-31T07:03:00.972Z,22.9
2018-07-31T07:04:08.193Z,20.2
2018-07-31T07:05:15.412Z,26.8
2018-07-31T07:06:22.630Z,27.7
2018-07-31T07:07:29.847Z,22.1
2018-07-31T07:08:37.063Z,19.7
2018-07-31T07:09:44.282Z,21
2018-07-31T07:10:51.495Z,17.1
2018-07-31T07:11:58.720Z,19.3
2018-07-31T07:13:05.941Z,22.4
2018-07-31T07:14:13.161Z,21.5
2018-07-31T07:15:20.428Z,20.8
2018-07-31T07:16:27.769Z,19
2018-07-31T07:17:34.700Z,18.6
2018-07-31T07:18:41.641Z,20.2
2018-07-31T07:19:48.864Z,17.7
2018-07-31T07:20:56.086Z,19.8
2018-07-31T07:22:03.300Z,19.7
2018-07-31T07:23:10.519Z,19.2
2018-07-31T07:24:17.477Z,15.8
2018-07-31T07:25:24.700Z,19.6
2018-07-31T07:26:31.918Z,18.7
2018-07-31T07:27:39.144Z,17.1
2018-07-31T07:28:46.355Z,15.8
2018-07-31T07:29:53.568Z,14.9
2018-07-31T07:31:00.798Z,9.4
2018-07-31T07:32:08.008Z,15.8
2018-07-31T07:33:15.246Z,15.5
2018-07-31T07:34:22.468Z,15
2018-07-31T07:35:29.686Z,14.2
2018-07-31T07:36:36.906Z,14.2
2018-07-31T07:37:44.118Z,13.1
2018-07-31T07:38:51.331Z,10.2
2018-07-31T07:39:58.556Z,12.6
2018-07-31T07:41:05.501Z,11.4
2018-07-31T07:42:12.722Z,13.2
2018-07-31T07:43:19.948Z,14.8
2018-07-31T07:44:27.161Z,16.7
2018-07-31T07:45:34.375Z,14.6
2018-07-31T07:46:41.588Z,15.9
2018-07-31T07:47:48.812Z,14.5
2018-07-31T07:48:56.033Z,12.1
2018-07-31T07:50:03.254Z,10.3
2018-07-31T07:51:10.473Z,11.3
2018-07-31T07:52:17.695Z,8.5
2018-07-31T07:53:24.907Z,10.7
2018-07-31T07:54:31.851Z,7.1
2018-07-31T07:55:39.070Z,10.2
2018-07-31T07:56:46.287Z,10.9
2018-07-31T07:57:53.513Z,14.4
2018-07-31T07:59:00.163Z,15.1
2018-07-31T08:00:07.130Z,11.3
2018-07-31T08:01:14.351Z,8.8
2018-07-31T08:02:21.570Z,11.6
2018-07-31T08:03:28.788Z,6.5
2018-07-31T08:04:36.012Z,4.5
2018-07-31T08:05:43.230Z,7.3
2018-07-31T08:06:50.478Z,4.5
2018-07-31T08:07:57.424Z,4.9
2018-07-31T08:09:04.644Z,5.8
2018-07-31T08:10:11.868Z,4.5
2018-07-31T08:11:18.809Z,3.3
2018-07-31T08:12:26.046Z,8.3
2018-07-31T08:13:33.259Z,11.8
2018-07-31T08:14:40.485Z,6.8
2018-07-31T08:15:47.711Z,6.4
2018-07-31T08:16:54.926Z,4.6
2018-07-31T08:18:02.144Z,4.7
2018-07-31T08:19:09.368Z,6.7
2018-07-31T08:20:16.596Z,4.7
2018-07-31T08:21:23.889Z,7.5
2018-07-31T08:22:31.139Z,4.8
2018-07-31T08:23:38.412Z,3.4
2018-07-31T08:24:45.648Z,7
2018-07-31T08:25:52.872Z,3.3
2018-07-31T08:27:00.097Z,5.1
2018-07-31T08:28:07.334Z,5.2
2018-07-31T08:29:14.556Z,3.4
2018-07-31T08:30:21.774Z,1
2018-07-31T08:31:28.989Z,1.5
2018-07-31T08:32:36.204Z,1
2018-07-31T08:33:43.425Z,1
2018-07-31T08:34:50.644Z,1
2018-07-31T08:35:57.861Z,1.5
2018-07-31T08:37:05.077Z,1
2018-07-31T08:38:12.030Z,1.8
2018-07-31T08:39:19.253Z,1
2018-07-31T08:40:26.476Z,1
2018-07-31T08:41:33.704Z,1
2018-07-31T08:42:40.925Z,1.7
2018-07-31T08:43:48.154Z,1.4
2018-07-31T08:44:55.366Z,1
2018-07-31T08:46:02.588Z,1
2018-07-31T08:47:09.807Z,1
2018-07-31T08:48:17.030Z,2.3
2018-07-31T08:49:24.250Z,5.9
2018-07-31T08:50:31.473Z,1
2018-07-31T08:51:38.692Z,1
2018-07-31T08:52:45.911Z,1
2018-07-31T08:53:53.137Z,1
2018-07-31T08:55:00.377Z,1
2018-07-31T08:56:07.597Z,2.3
2018-07-31T08:57:14.822Z,1
2018-07-31T08:58:21.498Z,2
2018-07-31T08:59:28.714Z,1.5
2018-07-31T09:00:35.931Z,1
2018-07-31T09:01:43.157Z,1
2018-07-31T09:02:50.407Z,1
2018-07-31T09:03:57.861Z,1.5
2018-07-31T09:05:04.814Z,1
2018-07-31T09:06:12.037Z,1
2018-07-31T09:07:19.260Z,1
2018-07-31T09:08:26.625Z,1
2018-07-31T09:09:34.453Z,1
2018-07-31T09:10:41.673Z,1
2018-07-31T09:11:48.904Z,1
2018-07-31T09:12:56.127Z,1
2018-07-31T09:14:03.351Z,1
2018-07-31T09:15:10.574Z,1
2018-07-31T09:16:17.809Z,1
2018-07-31T09:17:24.775Z,1
2018-07-31T09:18:32.099Z,1
2018-07-31T09:19:39.329Z,1
2018-07-31T09:20:46.555Z,1
2018-07-31T09:21:53.796Z,1
2018-07-31T09:23:01.013Z,1
2018-07-31T09:24:08.256Z,1
2018-07-31T09:25:15.481Z,1
2018-07-31T09:26:22.701Z,1
2018-07-31T09:27:29.918Z,1
2018-07-31T09:28:37.144Z,1
2018-07-31T09:29:44.370Z,1
2018-07-31T09:30:51.716Z,1
2018-07-31T09:31:59.544Z,1
2018-07-31T09:33:06.990Z,1
2018-07-31T09:34:14.214Z,1
2018-07-31T09:35:21.435Z,1
2018-07-31T09:36:28.694Z,1
2018-07-31T09:37:36.122Z,1
2018-07-31T09:38:43.344Z,1
2018-07-31T09:39:50.565Z,1
2018-07-31T09:40:57.783Z,1
2018-07-31T09:42:05.013Z,1
2018-07-31T09:43:11.963Z,1
2018-07-31T09:44:19.202Z,1
2018-07-31T09:45:26.422Z,1
2018-07-31T09:46:33.656Z,1
2018-07-31T09:47:40.883Z,1
2018-07-31T09:48:48.107Z,1
2018-07-31T09:49:55.331Z,1
2018-07-31T09:51:02.569Z,1
2018-07-31T09:52:09.790Z,1
2018-07-31T09:53:17.014Z,1
2018-07-31T09:54:24.242Z,1
2018-07-31T09:55:31.466Z,1
2018-07-31T09:56:38.905Z,1
2018-07-31T09:57:46.126Z,1
2018-07-31T09:58:53.351Z,1
2018-07-31T10:00:00.579Z,1
2018-07-31T10:01:07.535Z,1
2018-07-31T10:02:14.760Z,1
2018-07-31T10:03:21.997Z,1
2018-07-31T10:04:29.233Z,1
2018-07-31T10:05:36.456Z,1
2018-07-31T10:06:43.707Z,1
2018-07-31T10:07:50.930Z,1
2018-07-31T10:08:58.162Z,1
2018-07-31T10:10:05.118Z,1
2018-07-31T10:11:12.346Z,1
2018-07-31T10:12:19.569Z,1
2018-07-31T10:13:26.796Z,1
2018-07-31T10:14:34.022Z,1
2018-07-31T10:15:41.245Z,1
2018-07-31T10:16:48.471Z,1
2018-07-31T10:17:55.756Z,1
2018-07-31T10:19:02.854Z,1
2018-07-31T10:21:31.961Z,1
2018-07-31T10:22:39.185Z,1
2018-07-31T10:23:46.135Z,1
2018-07-31T10:24:53.366Z,1
2018-07-31T10:26:00.592Z,1
2018-07-31T10:27:07.818Z,1
2018-07-31T10:28:15.045Z,1
2018-07-31T10:29:22.269Z,1
2018-07-31T10:30:29.532Z,1
2018-07-31T10:31:36.821Z,1
2018-07-31T10:32:44.041Z,1
2018-07-31T10:33:51.261Z,1
2018-07-31T10:34:58.491Z,1
2018-07-31T10:36:05.711Z,1
2018-07-31T10:37:12.941Z,1
2018-07-31T10:38:20.162Z,1
2018-07-31T10:39:27.385Z,1
2018-07-31T10:40:34.640Z,1
2018-07-31T10:41:41.869Z,1
2018-07-31T10:42:49.086Z,1
2018-07-31T10:43:56.316Z,1
2018-07-31T10:45:03.639Z,1
2018-07-31T10:46:10.863Z,1
2018-07-31T10:47:18.084Z,1
2018-07-31T10:48:25.316Z,1
2018-07-31T10:49:32.543Z,1
2018-07-31T10:50:39.793Z,1
2018-07-31T10:51:47.299Z,1
2018-07-31T10:52:54.569Z,1
2018-07-31T10:54:01.808Z,1
2018-07-31T10:55:09.085Z,1
2018-07-31T10:56:16.786Z,1
2018-07-31T10:57:24.009Z,1
2018-07-31T10:58:31.304Z,1
2018-07-31T10:59:39.037Z,1
2018-07-31T11:00:46.575Z,1
2018-07-31T11:01:53.798Z,1
2018-07-31T11:03:01.069Z,1
2018-07-31T11:04:08.408Z,1
2018-07-31T11:05:15.714Z,1
2018-07-31T11:06:23.040Z,1
2018-07-31T11:07:30.646Z,1
2018-07-31T11:08:37.867Z,1
2018-07-31T11:09:45.090Z,1
2018-07-31T11:10:52.048Z,1
2018-07-31T11:11:59.294Z,1
2018-07-31T11:13:06.253Z,1
2018-07-31T11:14:13.519Z,1
2018-07-31T11:15:20.782Z,1
2018-07-31T11:16:28.009Z,1
2018-07-31T11:17:35.234Z,1
2018-07-31T11:18:42.462Z,1
2018-07-31T11:19:49.690Z,1
2018-07-31T11:20:56.693Z,1
2018-07-31T11:22:04.160Z,1
2018-07-31T11:23:11.402Z,1
2018-07-31T11:24:18.625Z,1
2018-07-31T11:25:25.575Z,1
2018-07-31T11:26:32.809Z,1
2018-07-31T11:27:40.035Z,1
2018-07-31T11:28:47.258Z,1
2018-07-31T11:29:54.483Z,1
2018-07-31T11:31:01.710Z,1
2018-07-31T11:32:08.698Z,1
2018-07-31T11:33:15.934Z,1
2018-07-31T11:34:23.168Z,1
2018-07-31T11:35:30.406Z,1
2018-07-31T11:36:37.625Z,1
2018-07-31T11:37:44.852Z,1
2018-07-31T11:38:52.075Z,1
2018-07-31T11:39:58.875Z,1
2018-07-31T11:41:05.846Z,1
2018-07-31T11:42:13.070Z,1
2018-07-31T11:43:20.293Z,1
2018-07-31T11:44:27.521Z,1
2018-07-31T11:45:34.748Z,1
2018-07-31T11:46:41.691Z,1
2018-07-31T11:47:48.918Z,1
2018-07-31T11:48:56.141Z,1
2018-07-31T11:50:03.487Z,1
2018-07-31T11:51:11.491Z,1
2018-07-31T11:52:18.455Z,1
2018-07-31T11:53:25.690Z,1
2018-07-31T11:54:32.912Z,1
2018-07-31T11:55:40.138Z,1
2018-07-31T11:56:47.367Z,1
2018-07-31T11:57:54.593Z,1
2018-07-31T11:59:01.555Z,1
2018-07-31T22:00:06.196Z,45.5
2018-07-31T22:01:13.446Z,46
2018-07-31T22:02:20.665Z,45.4
2018-07-31T22:03:27.885Z,46
2018-07-31T22:04:34.824Z,48
2018-07-31T22:05:42.079Z,48.1
2018-07-31T22:06:49.334Z,49.2
2018-07-31T22:07:56.550Z,48.9
2018-07-31T22:09:03.774Z,50.1
2018-07-31T22:10:10.986Z,53.4
2018-07-31T22:11:18.207Z,51.4
2018-07-31T22:12:25.427Z,50
2018-07-31T22:13:32.649Z,52.2
2018-07-31T22:14:39.863Z,52.4
2018-07-31T22:15:47.082Z,52.4
2018-07-31T22:16:54.298Z,52.8
2018-07-31T22:18:01.517Z,51.8
2018-07-31T22:19:08.733Z,55.1
2018-07-31T22:20:15.947Z,53.7
2018-07-31T22:21:22.889Z,53
2018-07-31T22:22:30.113Z,51.9
2018-07-31T22:23:37.327Z,53.3
2018-07-31T22:24:44.556Z,54.3
2018-07-31T22:25:51.911Z,52
2018-07-31T22:26:59.131Z,52.1
2018-07-31T22:28:06.345Z,53
2018-07-31T22:29:13.561Z,57.4
2018-07-31T22:30:20.811Z,56.4
2018-07-31T22:31:28.030Z,57.9
2018-07-31T22:32:35.245Z,59.4
2018-07-31T22:33:42.464Z,58.8
2018-07-31T22:34:49.677Z,58.8
2018-07-31T22:35:56.893Z,60
2018-07-31T22:37:04.109Z,59
2018-07-31T22:38:11.324Z,57.3
2018-07-31T22:39:18.550Z,58
2018-07-31T22:40:25.764Z,52.5
2018-07-31T22:41:32.979Z,60.9
2018-07-31T22:42:40.198Z,60.4
2018-07-31T22:43:47.417Z,61.5
2018-07-31T22:44:54.634Z,62.9
2018-07-31T22:46:01.850Z,60
2018-07-31T22:47:09.066Z,57.8
2018-07-31T22:48:16.291Z,61.2
2018-07-31T22:49:23.225Z,62.4
2018-07-31T22:50:30.435Z,63
2018-07-31T22:51:37.649Z,58
2018-07-31T22:52:44.867Z,65.4
2018-07-31T22:53:52.113Z,64.8
2018-07-31T22:54:59.065Z,61.6
2018-07-31T22:56:06.274Z,57.6
2018-07-31T22:57:13.214Z,62
2018-07-31T22:58:20.150Z,62.3
2018-07-31T22:59:27.363Z,60.5
2018-07-31T23:00:34.583Z,59.9
2018-07-31T23:01:41.793Z,60.3
2018-07-31T23:02:49.015Z,62.7
2018-07-31T23:03:56.247Z,65.2
2018-07-31T23:05:03.458Z,61.9
2018-07-31T23:06:10.676Z,60.9
2018-07-31T23:07:17.893Z,62.4
2018-07-31T23:08:25.227Z,61
2018-07-31T23:09:32.445Z,62.1
2018-07-31T23:10:39.660Z,60.9
2018-07-31T23:11:46.878Z,64
2018-07-31T23:12:54.102Z,68.1
2018-07-31T23:14:01.351Z,65.2
2018-07-31T23:15:08.667Z,67.3
2018-07-31T23:16:15.887Z,72.6
2018-07-31T23:17:22.823Z,61.6
2018-07-31T23:18:30.043Z,66.6
2018-07-31T23:19:37.254Z,60.2
2018-07-31T23:20:44.521Z,67
2018-07-31T23:21:51.887Z,60.7
2018-07-31T23:22:59.103Z,63.4
2018-07-31T23:24:06.320Z,64.6
2018-07-31T23:25:13.543Z,63.3
2018-07-31T23:26:20.758Z,66
2018-07-31T23:27:27.970Z,76.4
2018-07-31T23:28:35.299Z,68.3
2018-07-31T23:29:42.554Z,72.8
2018-07-31T23:30:49.770Z,70.2
2018-07-31T23:31:56.988Z,72.7
2018-07-31T23:33:04.207Z,67
2018-07-31T23:34:11.417Z,73
2018-07-31T23:35:18.364Z,74.4
2018-07-31T23:36:25.580Z,74.2
2018-07-31T23:37:32.809Z,74.6
2018-07-31T23:38:40.008Z,71.8
2018-07-31T23:39:47.217Z,67.5
2018-07-31T23:40:54.439Z,64
2018-07-31T23:42:01.653Z,62.4
2018-07-31T23:43:08.871Z,63.3
2018-07-31T23:44:16.086Z,71.8
2018-07-31T23:45:23.028Z,71
2018-07-31T23:46:30.244Z,71.9
2018-07-31T23:47:37.470Z,70.8
2018-07-31T23:48:44.681Z,68.7
2018-07-31T23:49:51.622Z,64.7
2018-07-31T23:50:58.845Z,67.6
2018-07-31T23:52:06.059Z,66.6
2018-07-31T23:53:13.277Z,74.3
2018-07-31T23:54:20.497Z,63.3
2018-07-31T23:55:27.715Z,72.8
2018-07-31T23:56:34.930Z,72.9
2018-07-31T23:57:42.369Z,69.5
2018-07-31T23:58:49.582Z,74.7
2018-07-31T23:59:56.798Z,72
